createdAt,value
2023-02-28T00:02:11.117Z,42.92
2023-02-28T00:05:21.213Z,43.29
2023-02-28T00:08:28.229Z,43.63
2023-02-28T00:11:33.855Z,43.73
2023-02-28T00:14:40.652Z,43.83
2023-02-28T00:17:50.147Z,43.89
2023-02-28T00:20:56.726Z,43.27
2023-02-28T00:24:02.206Z,43.66
2023-02-28T00:27:08.566Z,44.04
2023-02-28T00:30:19.424Z,43.81
2023-02-28T00:33:28.657Z,44.37
2023-02-28T00:36:34.176Z,44.02
2023-02-28T00:39:44.880Z,45.17
2023-02-28T00:42:50.314Z,45.83
2023-02-28T00:45:57.339Z,46.21
2023-02-28T00:49:05.824Z,46.03
2023-02-28T00:52:12.113Z,46.83
2023-02-28T00:55:18.230Z,47.02
2023-02-28T00:58:24.853Z,46.71
2023-02-28T01:01:30.819Z,47.46
2023-02-28T01:04:41.212Z,47.50
2023-02-28T01:07:46.568Z,47.29
2023-02-28T01:10:53.254Z,47.85
2023-02-28T01:13:58.928Z,48.25
2023-02-28T01:17:05.827Z,48.18
2023-02-28T01:20:15.568Z,48.52
2023-02-28T01:23:22.844Z,48.51
2023-02-28T01:26:28.925Z,49.04
2023-02-28T01:29:35.179Z,48.69
2023-02-28T01:32:40.856Z,49.33
2023-02-28T01:35:50.160Z,49.36
2023-02-28T01:38:56.433Z,49.83
2023-02-28T01:42:02.668Z,50.20
2023-02-28T01:45:26.222Z,50.25
2023-02-28T01:48:40.889Z,51.19
2023-02-28T01:51:55.971Z,51.28
2023-02-28T01:55:08.556Z,51.06
2023-02-28T01:58:15.691Z,51.19
2023-02-28T02:01:25.330Z,51.15
2023-02-28T02:04:43.048Z,52.03
2023-02-28T02:07:59.505Z,51.72
2023-02-28T02:11:07.190Z,51.37
2023-02-28T02:14:44.291Z,52.58
2023-02-28T02:17:57.521Z,51.63
2023-02-28T02:21:45.746Z,51.98
2023-02-28T02:25:27.615Z,52.78
2023-02-28T02:29:16.482Z,53.19
2023-02-28T02:33:04.708Z,52.70
2023-02-28T02:36:26.531Z,53.14
2023-02-28T02:39:49.415Z,52.97
2023-02-28T02:43:05.353Z,53.85
2023-02-28T02:46:21.073Z,53.89
2023-02-28T02:49:36.296Z,54.09
2023-02-28T02:52:54.123Z,54.44
2023-02-28T02:56:06.385Z,53.24
2023-02-28T02:59:22.210Z,54.33
2023-02-28T03:02:35.180Z,53.92
2023-02-28T03:05:51.345Z,54.05
2023-02-28T03:09:00.678Z,54.00
2023-02-28T03:12:13.892Z,54.68
2023-02-28T03:15:32.139Z,55.33
2023-02-28T03:18:58.840Z,55.13
2023-02-28T03:22:29.162Z,54.69
2023-02-28T03:25:56.479Z,55.25
2023-02-28T03:29:14.121Z,55.62
2023-02-28T03:32:31.000Z,54.67
2023-02-28T03:35:45.872Z,54.71
2023-02-28T03:39:03.794Z,54.99
2023-02-28T03:42:21.320Z,54.60
2023-02-28T03:45:33.913Z,54.14
2023-02-28T03:48:48.623Z,55.12
2023-02-28T03:52:00.366Z,54.99
2023-02-28T03:55:14.865Z,54.67
2023-02-28T03:58:34.251Z,54.82
2023-02-28T04:01:46.984Z,54.46
2023-02-28T04:04:52.613Z,54.77
2023-02-28T04:08:08.669Z,55.64
2023-02-28T04:11:32.177Z,55.00
2023-02-28T04:14:41.684Z,55.70
2023-02-28T04:17:47.071Z,54.92
2023-02-28T04:20:53.585Z,55.91
2023-02-28T04:24:01.838Z,55.84
2023-02-28T04:27:08.196Z,55.71
2023-02-28T04:30:17.527Z,55.08
2023-02-28T04:33:23.807Z,55.75
2023-02-28T04:36:29.883Z,55.59
2023-02-28T04:39:41.017Z,56.29
2023-02-28T04:42:46.434Z,55.52
2023-02-28T04:45:55.645Z,55.79
2023-02-28T04:49:01.174Z,55.32
2023-02-28T04:52:08.817Z,55.27
2023-02-28T04:55:14.634Z,55.17
2023-02-28T04:58:20.873Z,55.16
2023-02-28T05:01:33.521Z,56.12
2023-02-28T05:04:40.676Z,55.18
2023-02-28T05:07:46.221Z,55.52
2023-02-28T05:10:52.660Z,55.18
2023-02-28T05:13:58.146Z,55.97
2023-02-28T05:17:07.246Z,55.66
2023-02-28T05:20:16.372Z,56.40
2023-02-28T05:23:26.652Z,56.04
2023-02-28T05:26:33.105Z,56.47
2023-02-28T05:29:44.440Z,55.63
2023-02-28T05:32:55.910Z,55.93
2023-02-28T05:36:02.208Z,56.67
2023-02-28T05:39:13.858Z,56.80
2023-02-28T05:42:20.513Z,56.47
2023-02-28T05:45:26.186Z,56.25
2023-02-28T05:48:35.505Z,56.83
2023-02-28T05:51:41.212Z,56.97
2023-02-28T05:54:47.480Z,57.27
2023-02-28T05:57:53.431Z,57.65
2023-02-28T06:01:00.234Z,56.41
2023-02-28T06:04:22.260Z,57.58
2023-02-28T06:07:31.990Z,56.41
2023-02-28T06:10:38.149Z,56.69
2023-02-28T06:13:44.734Z,56.70
2023-02-28T06:16:51.192Z,57.61
2023-02-28T06:20:00.569Z,57.37
2023-02-28T06:23:06.706Z,57.05
2023-02-28T06:26:13.475Z,57.38
2023-02-28T06:29:20.551Z,56.78
2023-02-28T06:32:27.498Z,56.45
2023-02-28T06:35:35.861Z,57.26
2023-02-28T06:38:43.615Z,57.26
2023-02-28T06:41:55.468Z,56.93
2023-02-28T06:45:04.559Z,57.71
2023-02-28T06:48:10.290Z,56.51
2023-02-28T06:51:23.541Z,57.37
2023-02-28T06:54:29.865Z,56.83
2023-02-28T06:57:38.897Z,56.33
2023-02-28T07:00:45.007Z,56.74
2023-02-28T07:03:53.507Z,56.90
2023-02-28T07:07:02.088Z,55.79
2023-02-28T07:10:09.650Z,55.82
2023-02-28T07:13:15.603Z,56.82
2023-02-28T07:16:22.910Z,55.21
2023-02-28T07:19:28.594Z,55.67
2023-02-28T07:22:37.699Z,54.94
2023-02-28T07:25:43.090Z,55.30
2023-02-28T07:28:52.377Z,55.02
2023-02-28T07:31:58.220Z,54.58
2023-02-28T07:35:04.628Z,54.66
2023-02-28T07:38:14.924Z,54.41
2023-02-28T07:41:29.131Z,53.67
2023-02-28T07:44:34.788Z,53.04
2023-02-28T07:47:41.603Z,52.82
2023-02-28T07:50:49.310Z,51.75
2023-02-28T07:53:58.444Z,52.11
2023-02-28T07:57:04.304Z,51.29
2023-02-28T08:00:16.762Z,50.74
2023-02-28T08:03:24.911Z,50.74
2023-02-28T08:06:31.509Z,49.72
2023-02-28T08:09:40.279Z,49.38
2023-02-28T08:12:46.699Z,48.61
2023-02-28T08:15:52.260Z,49.10
2023-02-28T08:18:58.777Z,48.60
2023-02-28T08:22:04.221Z,48.45
2023-02-28T08:25:13.682Z,48.68
2023-02-28T08:28:19.149Z,49.00
2023-02-28T08:31:25.605Z,47.90
2023-02-28T08:34:31.040Z,47.47
2023-02-28T08:37:37.467Z,47.60
2023-02-28T08:40:45.770Z,47.26
2023-02-28T08:43:52.050Z,46.59
2023-02-28T08:46:57.527Z,46.42
2023-02-28T08:50:03.798Z,46.41
2023-02-28T08:53:09.241Z,46.10
2023-02-28T08:56:21.150Z,45.85
2023-02-28T08:59:26.958Z,45.89
2023-02-28T09:02:33.465Z,45.86
2023-02-28T09:05:39.339Z,45.75
2023-02-28T09:08:46.657Z,44.85
2023-02-28T09:11:54.830Z,45.03
2023-02-28T09:15:01.215Z,45.53
2023-02-28T09:18:06.731Z,45.64
2023-02-28T09:21:19.424Z,44.89
2023-02-28T09:24:24.897Z,44.43
2023-02-28T09:27:35.124Z,44.68
2023-02-28T09:30:41.399Z,44.21
2023-02-28T09:33:48.134Z,42.65
2023-02-28T09:36:56.571Z,42.95
2023-02-28T09:40:03.455Z,41.49
2023-02-28T09:43:21.845Z,41.87
2023-02-28T09:46:41.876Z,43.05
2023-02-28T09:49:52.055Z,42.80
2023-02-28T09:53:00.621Z,42.78
2023-02-28T09:56:14.278Z,42.97
2023-02-28T09:59:44.365Z,41.60
2023-02-28T10:03:28.061Z,42.50
2023-02-28T10:06:48.385Z,42.27
2023-02-28T10:10:04.348Z,42.00
2023-02-28T10:13:29.041Z,42.54
2023-02-28T10:16:47.517Z,42.40
2023-02-28T10:20:09.061Z,42.50
2023-02-28T10:23:24.979Z,43.13
2023-02-28T10:26:37.003Z,42.32
2023-02-28T10:29:48.913Z,42.47
2023-02-28T10:32:58.179Z,43.67
2023-02-28T10:36:04.360Z,42.71
2023-02-28T10:39:43.018Z,43.25
2023-02-28T10:43:02.535Z,42.50
2023-02-28T10:46:27.212Z,42.48
2023-02-28T10:49:35.962Z,42.25
2023-02-28T10:52:44.835Z,42.21
2023-02-28T10:56:02.700Z,41.39
2023-02-28T10:59:34.033Z,42.24
2023-02-28T11:02:44.093Z,41.21
2023-02-28T11:05:53.206Z,42.64
2023-02-28T11:09:03.501Z,41.61
2023-02-28T11:12:23.531Z,41.42
2023-02-28T11:15:33.654Z,41.86
2023-02-28T11:18:50.877Z,41.63
2023-02-28T11:22:04.725Z,41.76
2023-02-28T11:25:24.094Z,42.01
2023-02-28T11:28:33.697Z,40.56
2023-02-28T11:31:40.029Z,41.58
2023-02-28T11:34:47.493Z,43.00
2023-02-28T11:37:57.487Z,42.10
2023-02-28T11:41:44.275Z,41.88
2023-02-28T11:45:20.530Z,41.95
2023-02-28T11:48:37.043Z,41.74
2023-02-28T11:51:58.121Z,42.31
2023-02-28T11:55:23.577Z,42.41
2023-02-28T11:58:48.682Z,42.87
2023-02-28T12:02:25.214Z,42.43
2023-02-28T12:05:47.146Z,42.96
2023-02-28T12:09:08.409Z,42.78
2023-02-28T12:12:39.733Z,42.52
2023-02-28T12:16:24.532Z,42.97
2023-02-28T12:19:45.964Z,42.21
2023-02-28T12:23:12.763Z,43.14
2023-02-28T12:26:35.773Z,43.15
2023-02-28T12:29:54.392Z,42.64
2023-02-28T12:33:11.776Z,42.07
2023-02-28T12:36:25.052Z,42.14
2023-02-28T12:39:49.873Z,42.49
2023-02-28T12:43:02.590Z,43.40
2023-02-28T12:46:22.695Z,43.63
2023-02-28T12:49:36.985Z,43.38
2023-02-28T12:52:58.573Z,43.51
2023-02-28T12:56:26.439Z,43.22
2023-02-28T12:59:44.399Z,43.74
2023-02-28T13:03:46.823Z,44.08
2023-02-28T13:07:23.584Z,44.28
2023-02-28T13:10:43.134Z,44.08
2023-02-28T13:13:50.218Z,43.72
2023-02-28T13:17:14.390Z,43.65
2023-02-28T13:20:29.194Z,43.70
2023-02-28T13:24:03.335Z,44.07
2023-02-28T13:27:43.941Z,43.14
2023-02-28T13:31:09.104Z,43.47
2023-02-28T13:34:20.411Z,44.04
2023-02-28T13:37:50.997Z,43.23
2023-02-28T13:40:58.452Z,43.67
2023-02-28T13:44:09.045Z,43.23
2023-02-28T13:47:31.925Z,43.51
2023-02-28T13:50:41.626Z,43.18
2023-02-28T13:54:19.350Z,43.84
2023-02-28T13:57:46.388Z,43.43
2023-02-28T14:01:20.925Z,43.83
2023-02-28T14:05:03.277Z,43.54
2023-02-28T14:08:19.374Z,42.10
2023-02-28T14:11:40.601Z,42.95
2023-02-28T14:15:00.998Z,43.32
2023-02-28T14:18:19.894Z,42.79
2023-02-28T14:21:31.066Z,42.65
2023-02-28T14:25:12.394Z,43.56
2023-02-28T14:28:43.949Z,43.10
2023-02-28T14:32:02.343Z,43.65
2023-02-28T14:35:32.565Z,43.33
2023-02-28T14:38:49.461Z,42.89
2023-02-28T14:41:58.693Z,43.34
2023-02-28T14:45:08.351Z,43.21
2023-02-28T14:48:14.990Z,42.31
2023-02-28T14:51:25.364Z,43.00
2023-02-28T14:54:33.330Z,42.63
2023-02-28T14:57:45.889Z,42.63
2023-02-28T15:00:58.284Z,42.59
2023-02-28T15:04:09.284Z,42.24
2023-02-28T15:07:19.076Z,42.01
2023-02-28T15:10:30.172Z,42.38
2023-02-28T15:13:46.164Z,43.35
2023-02-28T15:17:03.359Z,42.93
2023-02-28T15:20:17.185Z,42.88
2023-02-28T15:23:26.639Z,42.80
2023-02-28T15:26:39.695Z,42.29
2023-02-28T15:29:53.204Z,43.43
2023-02-28T15:33:26.189Z,42.94
2023-02-28T15:36:38.319Z,43.05
2023-02-28T15:39:48.961Z,42.88
2023-02-28T15:43:10.838Z,42.71
2023-02-28T15:46:19.103Z,42.92
2023-02-28T15:49:28.341Z,43.20
2023-02-28T15:52:45.002Z,43.26
2023-02-28T15:56:00.280Z,43.32
2023-02-28T15:59:17.970Z,43.46
2023-02-28T16:02:27.184Z,43.37
2023-02-28T16:05:36.632Z,43.65
2023-02-28T16:08:42.111Z,43.51
2023-02-28T16:11:52.743Z,44.14
2023-02-28T16:15:04.081Z,44.58
2023-02-28T16:18:16.177Z,44.73
2023-02-28T16:21:24.613Z,44.18
2023-02-28T16:24:31.224Z,44.67
2023-02-28T16:27:42.324Z,44.31
2023-02-28T16:30:48.946Z,44.86
2023-02-28T16:33:54.497Z,44.90
2023-02-28T16:37:03.718Z,44.31
2023-02-28T16:40:11.709Z,44.73
2023-02-28T16:43:23.941Z,44.67
2023-02-28T16:46:37.405Z,44.88
2023-02-28T16:49:44.332Z,45.23
2023-02-28T16:52:53.666Z,45.17
2023-02-28T16:56:03.049Z,45.24
2023-02-28T16:59:08.792Z,44.73
2023-02-28T17:02:20.901Z,44.87
2023-02-28T17:05:28.467Z,45.10
2023-02-28T17:08:37.937Z,44.89
2023-02-28T17:11:43.698Z,45.38
2023-02-28T17:14:50.077Z,45.52
2023-02-28T17:17:55.674Z,45.71
2023-02-28T17:21:02.277Z,45.60
2023-02-28T17:24:16.503Z,45.67
2023-02-28T17:27:26.197Z,46.02
2023-02-28T17:30:32.751Z,46.07
2023-02-28T17:33:39.136Z,45.74
2023-02-28T17:36:44.855Z,46.11
2023-02-28T17:39:54.000Z,45.74
2023-02-28T17:43:00.222Z,46.48
2023-02-28T17:46:06.895Z,46.63
2023-02-28T17:49:14.282Z,46.60
2023-02-28T17:52:20.695Z,46.08
2023-02-28T17:55:28.926Z,46.37
2023-02-28T17:58:35.366Z,46.74
2023-02-28T18:01:41.022Z,47.02
2023-02-28T18:04:47.464Z,47.28
2023-02-28T18:07:53.556Z,46.89
2023-02-28T18:11:03.017Z,47.50
2023-02-28T18:14:08.694Z,47.29
2023-02-28T18:17:16.717Z,47.56
2023-02-28T18:20:22.905Z,47.55
2023-02-28T18:23:29.332Z,47.73
2023-02-28T18:26:38.149Z,47.53
2023-02-28T18:29:44.481Z,47.75
2023-02-28T18:32:50.137Z,48.08
2023-02-28T18:36:00.788Z,48.10
2023-02-28T18:39:06.721Z,48.42
2023-02-28T18:42:16.068Z,48.58
2023-02-28T18:45:21.597Z,48.28
2023-02-28T18:48:28.397Z,48.44
2023-02-28T18:51:34.308Z,48.67
2023-02-28T18:54:40.661Z,48.80
2023-02-28T18:57:50.223Z,48.63
2023-02-28T19:00:56.943Z,48.93
2023-02-28T19:04:04.562Z,49.05
2023-02-28T19:07:11.239Z,48.62
2023-02-28T19:10:17.898Z,48.79
2023-02-28T19:13:27.044Z,48.73
2023-02-28T19:16:33.543Z,48.55
2023-02-28T19:19:40.160Z,49.17
2023-02-28T19:22:45.922Z,49.00
2023-02-28T19:25:52.412Z,49.00
2023-02-28T19:29:00.707Z,49.54
2023-02-28T19:32:07.380Z,49.65
2023-02-28T19:35:13.223Z,49.54
2023-02-28T19:38:20.554Z,49.93
2023-02-28T19:41:26.184Z,49.70
2023-02-28T19:44:35.436Z,50.00
2023-02-28T19:47:41.365Z,49.86
2023-02-28T19:50:47.789Z,50.09
2023-02-28T19:53:53.456Z,49.94
2023-02-28T19:57:02.119Z,49.89
2023-02-28T20:00:17.354Z,50.01
2023-02-28T20:03:24.078Z,49.82
2023-02-28T20:06:30.081Z,50.03
2023-02-28T20:09:37.194Z,49.74
2023-02-28T20:12:42.959Z,49.81
2023-02-28T20:15:52.403Z,50.07
2023-02-28T20:18:58.589Z,49.43
2023-02-28T20:22:05.485Z,49.46
2023-02-28T20:25:12.463Z,49.63
2023-02-28T20:28:19.037Z,50.11
2023-02-28T20:31:30.769Z,49.84
2023-02-28T20:34:37.600Z,50.43
2023-02-28T20:37:44.857Z,50.38
2023-02-28T20:40:51.277Z,49.75
2023-02-28T20:43:58.376Z,50.29
2023-02-28T20:47:07.870Z,49.92
2023-02-28T20:50:14.989Z,50.33
2023-02-28T20:53:22.140Z,49.69
2023-02-28T20:56:28.618Z,49.97
2023-02-28T20:59:35.928Z,49.97
2023-02-28T21:02:44.461Z,50.16
2023-02-28T21:05:50.860Z,50.51
2023-02-28T21:08:57.354Z,50.39
2023-02-28T21:12:03.770Z,50.05
2023-02-28T21:15:10.940Z,50.99
2023-02-28T21:18:20.097Z,51.10
2023-02-28T21:21:28.406Z,50.99
2023-02-28T21:24:35.147Z,51.74
2023-02-28T21:27:40.816Z,51.48
2023-02-28T21:30:47.227Z,51.01
2023-02-28T21:33:57.447Z,51.38
2023-02-28T21:37:04.007Z,51.87
2023-02-28T21:40:11.959Z,51.05
2023-02-28T21:43:18.291Z,51.40
2023-02-28T21:46:26.550Z,50.93
2023-02-28T21:49:35.827Z,50.79
2023-02-28T21:52:41.909Z,50.55
2023-02-28T21:55:48.212Z,51.02
2023-02-28T21:59:01.619Z,51.77
2023-02-28T22:02:10.854Z,51.55
2023-02-28T22:05:19.446Z,51.62
2023-02-28T22:08:25.745Z,52.11
2023-02-28T22:11:32.424Z,52.13
2023-02-28T22:14:40.062Z,51.63
2023-02-28T22:17:45.859Z,51.86
2023-02-28T22:20:59.961Z,52.06
2023-02-28T22:24:06.226Z,52.30
2023-02-28T22:27:12.569Z,51.73
2023-02-28T22:30:18.838Z,52.37
2023-02-28T22:33:25.162Z,52.67
2023-02-28T22:36:34.685Z,52.95
2023-02-28T22:39:41.010Z,51.51
2023-02-28T22:42:46.393Z,51.93
2023-02-28T22:45:52.719Z,52.37
2023-02-28T22:48:58.942Z,52.33
2023-02-28T22:52:08.635Z,51.45
2023-02-28T22:55:14.587Z,51.69
2023-02-28T22:58:20.881Z,53.20
2023-02-28T23:01:30.092Z,52.46
2023-02-28T23:04:36.744Z,53.79
2023-02-28T23:07:46.770Z,53.52
2023-02-28T23:10:54.139Z,54.27
2023-02-28T23:14:03.322Z,55.17
2023-02-28T23:17:09.621Z,54.76
2023-02-28T23:20:16.436Z,55.83
2023-02-28T23:23:31.280Z,55.76
2023-02-28T23:26:36.818Z,55.26
2023-02-28T23:29:43.885Z,54.74
2023-02-28T23:32:49.373Z,55.77
2023-02-28T23:35:58.654Z,55.42
2023-02-28T23:39:07.105Z,55.20
2023-02-28T23:42:14.425Z,55.50
2023-02-28T23:45:20.156Z,55.97
2023-02-28T23:48:26.458Z,55.46
2023-02-28T23:51:31.933Z,55.15
2023-02-28T23:54:40.962Z,56.50
2023-02-28T23:57:46.425Z,56.49
